KMOT/MOT METAR and TAF weather

Enter ICAO airport designator
Station Type Date Time Source
KMOT METAR 2020/09/19 21:54 UTC NOAA

KMOT 192154Z 11015G22KT 10SM CLR 25/11 A2986 RMK AO2 SLP109 T02500111


Station Type Date Time Source
KMOT Decoded METAR 2020/09/19 21:54 UTC NOAA

MINOT INTERNATIONAL AIRPORT , ND, United States (KMOT) 48-16N 101-17W 519M
Sep 19, 2020 - 05:54 PM EDT / 2020.09.19 2154 UTC
Wind: from the ESE (110 degrees) at 17 MPH (15 KT) gusting to 25 MPH (22 KT):0
Visibility: 10 mile(s):0
Sky conditions: clear
Temperature: 77.0 F (25.0 C)
Dew Point: 52.0 F (11.1 C)
Relative Humidity: 41%
Pressure (altimeter): 29.86 in. Hg (1011 hPa)
ob: KMOT 192154Z 11015G22KT 10SM CLR 25/11 A2986 RMK AO2 SLP109 T02500111
cycle: 22

Station Type Date Time Source
KMOT TAF 2020/09/19 18:27 UTC NOAA

TAF KMOT 191725Z 1918/2018 12012KT P6SM FEW100 SCT250
FM192000 12013G20KT P6SM FEW100 SCT250
FM200100 12009KT P6SM FEW100 SCT250
FM201200 16009KT P6SM SCT100 BKN200
FM201600 23012KT P6SM FEW060 SCT250

Example: see airport list